sensor_id;sensor_type;location;lat;lon;timestamp;P1;durP1;ratioP1;P2;durP2;ratioP2
26086;SDS011;13851;43.434;28.338;2022-11-20T00:02:17;24.38;;;10.38;;
26086;SDS011;13851;43.434;28.338;2022-11-20T00:04:43;24.80;;;11.55;;
26086;SDS011;13851;43.434;28.338;2022-11-20T00:07:08;27.90;;;11.27;;
26086;SDS011;13851;43.434;28.338;2022-11-20T00:09:34;26.60;;;11.27;;
26086;SDS011;13851;43.434;28.338;2022-11-20T00:11:59;26.55;;;10.63;;
26086;SDS011;13851;43.434;28.338;2022-11-20T00:14:25;25.02;;;10.25;;
26086;SDS011;13851;43.434;28.338;2022-11-20T00:16:50;24.13;;;10.02;;
26086;SDS011;13851;43.434;28.338;2022-11-20T00:19:16;22.23;;;9.90;;
26086;SDS011;13851;43.434;28.338;2022-11-20T00:21:41;22.23;;;10.75;;
26086;SDS011;13851;43.434;28.338;2022-11-20T00:24:07;22.67;;;10.48;;
26086;SDS011;13851;43.434;28.338;2022-11-20T00:26:35;23.40;;;9.80;;
26086;SDS011;13851;43.434;28.338;2022-11-20T00:29:01;26.25;;;10.05;;
26086;SDS011;13851;43.434;28.338;2022-11-20T00:31:27;21.70;;;9.90;;
26086;SDS011;13851;43.434;28.338;2022-11-20T00:33:53;23.73;;;10.27;;
26086;SDS011;13851;43.434;28.338;2022-11-20T00:36:20;22.58;;;9.73;;
26086;SDS011;13851;43.434;28.338;2022-11-20T00:38:50;25.23;;;9.82;;
26086;SDS011;13851;43.434;28.338;2022-11-20T00:41:17;20.50;;;9.05;;
26086;SDS011;13851;43.434;28.338;2022-11-20T00:43:42;26.23;;;10.20;;
26086;SDS011;13851;43.434;28.338;2022-11-20T00:46:15;23.33;;;10.05;;
26086;SDS011;13851;43.434;28.338;2022-11-20T00:48:42;21.63;;;8.82;;
26086;SDS011;13851;43.434;28.338;2022-11-20T00:51:08;23.75;;;9.32;;
26086;SDS011;13851;43.434;28.338;2022-11-20T00:53:36;21.17;;;8.27;;
26086;SDS011;13851;43.434;28.338;2022-11-20T00:56:02;21.38;;;9.30;;
26086;SDS011;13851;43.434;28.338;2022-11-20T00:58:33;20.15;;;9.43;;
26086;SDS011;13851;43.434;28.338;2022-11-20T01:01:01;22.67;;;9.55;;
26086;SDS011;13851;43.434;28.338;2022-11-20T01:03:32;26.77;;;9.88;;
26086;SDS011;13851;43.434;28.338;2022-11-20T01:06:00;18.73;;;9.38;;
26086;SDS011;13851;43.434;28.338;2022-11-20T01:08:33;24.75;;;8.95;;
26086;SDS011;13851;43.434;28.338;2022-11-20T01:11:00;22.75;;;9.40;;
26086;SDS011;13851;43.434;28.338;2022-11-20T01:13:27;22.58;;;9.05;;
26086;SDS011;13851;43.434;28.338;2022-11-20T01:18:41;22.38;;;10.00;;
26086;SDS011;13851;43.434;28.338;2022-11-20T01:21:13;22.83;;;10.07;;
26086;SDS011;13851;43.434;28.338;2022-11-20T01:23:41;24.27;;;10.45;;
26086;SDS011;13851;43.434;28.338;2022-11-20T01:26:09;30.25;;;11.23;;
26086;SDS011;13851;43.434;28.338;2022-11-20T01:28:37;25.48;;;10.85;;
26086;SDS011;13851;43.434;28.338;2022-11-20T01:33:41;28.33;;;10.90;;
26086;SDS011;13851;43.434;28.338;2022-11-20T01:36:07;25.00;;;10.80;;
26086;SDS011;13851;43.434;28.338;2022-11-20T01:38:34;24.90;;;10.73;;
26086;SDS011;13851;43.434;28.338;2022-11-20T01:41:02;19.50;;;8.93;;
26086;SDS011;13851;43.434;28.338;2022-11-20T01:43:28;24.20;;;8.93;;
26086;SDS011;13851;43.434;28.338;2022-11-20T01:46:16;19.52;;;8.77;;
26086;SDS011;13851;43.434;28.338;2022-11-20T01:51:21;21.75;;;8.50;;
26086;SDS011;13851;43.434;28.338;2022-11-20T01:53:58;19.23;;;8.18;;
26086;SDS011;13851;43.434;28.338;2022-11-20T01:56:26;18.58;;;8.45;;
26086;SDS011;13851;43.434;28.338;2022-11-20T01:58:56;15.38;;;7.97;;
26086;SDS011;13851;43.434;28.338;2022-11-20T02:01:26;29.33;;;8.05;;
26086;SDS011;13851;43.434;28.338;2022-11-20T02:03:52;22.30;;;9.38;;
26086;SDS011;13851;43.434;28.338;2022-11-20T02:06:19;22.85;;;8.48;;
26086;SDS011;13851;43.434;28.338;2022-11-20T02:08:53;21.42;;;9.10;;
26086;SDS011;13851;43.434;28.338;2022-11-20T02:11:20;22.40;;;9.18;;
26086;SDS011;13851;43.434;28.338;2022-11-20T02:13:46;22.27;;;9.25;;
26086;SDS011;13851;43.434;28.338;2022-11-20T02:18:42;24.10;;;9.90;;
26086;SDS011;13851;43.434;28.338;2022-11-20T02:26:38;22.65;;;9.70;;
26086;SDS011;13851;43.434;28.338;2022-11-20T02:29:12;23.35;;;10.00;;
26086;SDS011;13851;43.434;28.338;2022-11-20T02:31:41;23.63;;;10.73;;
26086;SDS011;13851;43.434;28.338;2022-11-20T02:34:08;25.27;;;10.32;;
26086;SDS011;13851;43.434;28.338;2022-11-20T02:36:34;26.23;;;10.13;;
26086;SDS011;13851;43.434;28.338;2022-11-20T02:39:02;22.83;;;9.63;;
26086;SDS011;13851;43.434;28.338;2022-11-20T02:41:32;22.50;;;8.90;;
26086;SDS011;13851;43.434;28.338;2022-11-20T02:44:02;21.38;;;9.93;;
26086;SDS011;13851;43.434;28.338;2022-11-20T02:46:28;23.13;;;9.82;;
26086;SDS011;13851;43.434;28.338;2022-11-20T02:48:54;25.23;;;9.90;;
26086;SDS011;13851;43.434;28.338;2022-11-20T02:51:20;24.42;;;10.13;;
26086;SDS011;13851;43.434;28.338;2022-11-20T02:53:45;21.98;;;10.32;;
26086;SDS011;13851;43.434;28.338;2022-11-20T02:56:11;19.48;;;8.88;;
26086;SDS011;13851;43.434;28.338;2022-11-20T02:58:36;19.63;;;8.82;;
26086;SDS011;13851;43.434;28.338;2022-11-20T03:01:02;23.20;;;9.38;;
26086;SDS011;13851;43.434;28.338;2022-11-20T03:03:27;25.52;;;8.80;;
26086;SDS011;13851;43.434;28.338;2022-11-20T03:05:53;18.20;;;8.02;;
26086;SDS011;13851;43.434;28.338;2022-11-20T03:08:18;21.63;;;8.10;;
26086;SDS011;13851;43.434;28.338;2022-11-20T03:10:44;19.45;;;8.32;;
26086;SDS011;13851;43.434;28.338;2022-11-20T03:13:09;18.42;;;8.00;;
26086;SDS011;13851;43.434;28.338;2022-11-20T03:15:36;22.33;;;8.45;;
26086;SDS011;13851;43.434;28.338;2022-11-20T03:18:02;17.60;;;7.70;;
26086;SDS011;13851;43.434;28.338;2022-11-20T03:20:32;24.70;;;8.68;;
26086;SDS011;13851;43.434;28.338;2022-11-20T03:22:58;19.03;;;7.37;;
26086;SDS011;13851;43.434;28.338;2022-11-20T03:25:23;13.88;;;6.32;;
26086;SDS011;13851;43.434;28.338;2022-11-20T03:27:49;16.38;;;6.78;;
26086;SDS011;13851;43.434;28.338;2022-11-20T03:30:14;19.08;;;5.88;;
26086;SDS011;13851;43.434;28.338;2022-11-20T03:32:43;16.13;;;5.50;;
26086;SDS011;13851;43.434;28.338;2022-11-20T03:35:08;11.63;;;5.55;;
26086;SDS011;13851;43.434;28.338;2022-11-20T03:37:34;14.23;;;5.97;;
26086;SDS011;13851;43.434;28.338;2022-11-20T03:40:00;19.38;;;6.35;;
26086;SDS011;13851;43.434;28.338;2022-11-20T03:42:26;18.58;;;7.10;;
26086;SDS011;13851;43.434;28.338;2022-11-20T03:45:10;15.05;;;5.68;;
26086;SDS011;13851;43.434;28.338;2022-11-20T03:47:35;18.60;;;5.88;;
26086;SDS011;13851;43.434;28.338;2022-11-20T03:50:01;16.25;;;6.28;;
26086;SDS011;13851;43.434;28.338;2022-11-20T03:52:26;20.92;;;5.78;;
26086;SDS011;13851;43.434;28.338;2022-11-20T03:54:52;20.10;;;6.45;;
26086;SDS011;13851;43.434;28.338;2022-11-20T03:57:17;17.75;;;6.13;;
26086;SDS011;13851;43.434;28.338;2022-11-20T03:59:43;18.95;;;6.35;;
26086;SDS011;13851;43.434;28.338;2022-11-20T04:02:08;15.25;;;6.10;;
26086;SDS011;13851;43.434;28.338;2022-11-20T04:04:33;13.43;;;6.25;;
26086;SDS011;13851;43.434;28.338;2022-11-20T04:06:59;17.85;;;6.13;;
26086;SDS011;13851;43.434;28.338;2022-11-20T04:09:24;23.80;;;6.60;;
26086;SDS011;13851;43.434;28.338;2022-11-20T04:11:50;19.27;;;6.90;;
26086;SDS011;13851;43.434;28.338;2022-11-20T04:14:16;16.63;;;6.80;;
26086;SDS011;13851;43.434;28.338;2022-11-20T04:16:44;17.15;;;6.50;;
26086;SDS011;13851;43.434;28.338;2022-11-20T04:19:11;27.23;;;7.47;;
26086;SDS011;13851;43.434;28.338;2022-11-20T04:21:41;20.35;;;7.05;;
26086;SDS011;13851;43.434;28.338;2022-11-20T04:24:07;20.80;;;6.43;;
26086;SDS011;13851;43.434;28.338;2022-11-20T04:26:33;21.38;;;7.05;;
26086;SDS011;13851;43.434;28.338;2022-11-20T04:29:02;18.40;;;6.97;;
26086;SDS011;13851;43.434;28.338;2022-11-20T04:31:29;14.40;;;5.35;;
26086;SDS011;13851;43.434;28.338;2022-11-20T04:33:58;18.50;;;5.80;;
26086;SDS011;13851;43.434;28.338;2022-11-20T04:36:28;22.20;;;6.03;;
26086;SDS011;13851;43.434;28.338;2022-11-20T04:38:58;17.65;;;6.15;;
26086;SDS011;13851;43.434;28.338;2022-11-20T04:41:27;13.00;;;4.90;;
26086;SDS011;13851;43.434;28.338;2022-11-20T04:43:56;19.33;;;6.40;;
26086;SDS011;13851;43.434;28.338;2022-11-20T04:46:28;18.88;;;6.07;;
26086;SDS011;13851;43.434;28.338;2022-11-20T04:48:55;15.82;;;5.88;;
26086;SDS011;13851;43.434;28.338;2022-11-20T04:51:21;20.58;;;6.10;;
26086;SDS011;13851;43.434;28.338;2022-11-20T04:53:47;21.42;;;6.15;;
26086;SDS011;13851;43.434;28.338;2022-11-20T04:56:13;21.40;;;5.63;;
26086;SDS011;13851;43.434;28.338;2022-11-20T04:58:39;16.27;;;5.05;;
26086;SDS011;13851;43.434;28.338;2022-11-20T05:01:06;15.20;;;5.18;;
26086;SDS011;13851;43.434;28.338;2022-11-20T05:03:34;20.80;;;6.03;;
26086;SDS011;13851;43.434;28.338;2022-11-20T05:06:00;18.38;;;5.38;;
26086;SDS011;13851;43.434;28.338;2022-11-20T05:08:27;20.75;;;5.95;;
26086;SDS011;13851;43.434;28.338;2022-11-20T05:10:52;16.48;;;5.45;;
26086;SDS011;13851;43.434;28.338;2022-11-20T05:13:18;22.55;;;5.90;;
26086;SDS011;13851;43.434;28.338;2022-11-20T05:15:43;20.38;;;6.22;;
26086;SDS011;13851;43.434;28.338;2022-11-20T05:18:09;19.52;;;7.10;;
26086;SDS011;13851;43.434;28.338;2022-11-20T05:20:34;26.77;;;12.00;;
26086;SDS011;13851;43.434;28.338;2022-11-20T05:23:01;19.08;;;6.15;;
26086;SDS011;13851;43.434;28.338;2022-11-20T05:25:27;21.02;;;6.63;;
26086;SDS011;13851;43.434;28.338;2022-11-20T05:27:53;24.70;;;7.35;;
26086;SDS011;13851;43.434;28.338;2022-11-20T05:30:18;27.25;;;6.60;;
26086;SDS011;13851;43.434;28.338;2022-11-20T05:32:43;24.52;;;6.80;;
26086;SDS011;13851;43.434;28.338;2022-11-20T05:35:09;16.83;;;6.53;;
26086;SDS011;13851;43.434;28.338;2022-11-20T05:37:34;19.38;;;6.53;;
26086;SDS011;13851;43.434;28.338;2022-11-20T05:40:00;21.45;;;7.18;;
26086;SDS011;13851;43.434;28.338;2022-11-20T05:42:29;22.45;;;6.82;;
26086;SDS011;13851;43.434;28.338;2022-11-20T05:44:59;22.58;;;7.22;;
26086;SDS011;13851;43.434;28.338;2022-11-20T05:47:26;21.90;;;7.15;;
26086;SDS011;13851;43.434;28.338;2022-11-20T05:49:52;24.38;;;7.57;;
26086;SDS011;13851;43.434;28.338;2022-11-20T05:52:18;23.52;;;7.13;;
26086;SDS011;13851;43.434;28.338;2022-11-20T05:54:44;19.88;;;5.80;;
26086;SDS011;13851;43.434;28.338;2022-11-20T05:57:10;19.17;;;5.90;;
26086;SDS011;13851;43.434;28.338;2022-11-20T05:59:35;23.83;;;6.72;;
26086;SDS011;13851;43.434;28.338;2022-11-20T06:02:01;18.50;;;7.18;;
26086;SDS011;13851;43.434;28.338;2022-11-20T06:04:26;19.17;;;6.20;;
26086;SDS011;13851;43.434;28.338;2022-11-20T06:06:52;16.60;;;5.95;;
26086;SDS011;13851;43.434;28.338;2022-11-20T06:09:17;23.13;;;6.15;;
26086;SDS011;13851;43.434;28.338;2022-11-20T06:11:43;22.90;;;6.50;;
26086;SDS011;13851;43.434;28.338;2022-11-20T06:14:08;21.30;;;6.10;;
26086;SDS011;13851;43.434;28.338;2022-11-20T06:16:34;21.50;;;6.43;;
26086;SDS011;13851;43.434;28.338;2022-11-20T06:18:59;24.35;;;6.22;;
26086;SDS011;13851;43.434;28.338;2022-11-20T06:21:25;23.73;;;9.30;;
26086;SDS011;13851;43.434;28.338;2022-11-20T06:23:51;32.42;;;14.18;;
26086;SDS011;13851;43.434;28.338;2022-11-20T06:26:19;38.28;;;17.92;;
26086;SDS011;13851;43.434;28.338;2022-11-20T06:28:49;33.47;;;14.18;;
26086;SDS011;13851;43.434;28.338;2022-11-20T06:31:17;26.58;;;10.52;;
26086;SDS011;13851;43.434;28.338;2022-11-20T06:33:45;20.30;;;8.40;;
26086;SDS011;13851;43.434;28.338;2022-11-20T06:36:11;25.52;;;7.32;;
26086;SDS011;13851;43.434;28.338;2022-11-20T06:38:38;30.48;;;13.02;;
26086;SDS011;13851;43.434;28.338;2022-11-20T06:41:05;29.30;;;13.35;;
26086;SDS011;13851;43.434;28.338;2022-11-20T06:43:31;38.35;;;18.52;;
26086;SDS011;13851;43.434;28.338;2022-11-20T06:45:57;33.50;;;12.30;;
26086;SDS011;13851;43.434;28.338;2022-11-20T06:48:25;26.40;;;9.93;;
26086;SDS011;13851;43.434;28.338;2022-11-20T06:50:51;28.77;;;8.15;;
26086;SDS011;13851;43.434;28.338;2022-11-20T06:53:17;27.15;;;8.18;;
26086;SDS011;13851;43.434;28.338;2022-11-20T06:55:43;25.75;;;8.38;;
26086;SDS011;13851;43.434;28.338;2022-11-20T06:58:10;26.02;;;7.32;;
26086;SDS011;13851;43.434;28.338;2022-11-20T07:00:36;26.85;;;7.85;;
26086;SDS011;13851;43.434;28.338;2022-11-20T07:03:08;22.77;;;6.63;;
26086;SDS011;13851;43.434;28.338;2022-11-20T07:05:35;21.55;;;7.30;;
26086;SDS011;13851;43.434;28.338;2022-11-20T07:08:04;21.45;;;7.28;;
26086;SDS011;13851;43.434;28.338;2022-11-20T07:10:30;22.45;;;6.97;;
26086;SDS011;13851;43.434;28.338;2022-11-20T07:12:55;22.52;;;6.55;;
26086;SDS011;13851;43.434;28.338;2022-11-20T07:15:22;22.13;;;6.82;;
26086;SDS011;13851;43.434;28.338;2022-11-20T07:17:49;22.40;;;6.75;;
26086;SDS011;13851;43.434;28.338;2022-11-20T07:20:18;30.45;;;7.55;;
26086;SDS011;13851;43.434;28.338;2022-11-20T07:22:43;26.42;;;7.68;;
26086;SDS011;13851;43.434;28.338;2022-11-20T07:25:09;26.60;;;7.18;;
26086;SDS011;13851;43.434;28.338;2022-11-20T07:27:35;23.65;;;7.50;;
26086;SDS011;13851;43.434;28.338;2022-11-20T07:30:02;26.85;;;7.47;;
26086;SDS011;13851;43.434;28.338;2022-11-20T07:32:28;24.85;;;6.97;;
26086;SDS011;13851;43.434;28.338;2022-11-20T07:34:54;26.92;;;7.07;;
26086;SDS011;13851;43.434;28.338;2022-11-20T07:37:19;24.10;;;7.38;;
26086;SDS011;13851;43.434;28.338;2022-11-20T07:39:45;28.10;;;6.93;;
26086;SDS011;13851;43.434;28.338;2022-11-20T07:42:10;26.55;;;7.28;;
26086;SDS011;13851;43.434;28.338;2022-11-20T07:44:37;23.60;;;7.82;;
26086;SDS011;13851;43.434;28.338;2022-11-20T07:47:03;27.77;;;8.35;;
26086;SDS011;13851;43.434;28.338;2022-11-20T07:49:29;29.00;;;8.02;;
26086;SDS011;13851;43.434;28.338;2022-11-20T07:51:54;25.27;;;7.88;;
26086;SDS011;13851;43.434;28.338;2022-11-20T07:54:20;26.63;;;7.80;;
26086;SDS011;13851;43.434;28.338;2022-11-20T07:56:46;28.67;;;7.80;;
26086;SDS011;13851;43.434;28.338;2022-11-20T07:59:15;26.50;;;7.78;;
26086;SDS011;13851;43.434;28.338;2022-11-20T08:01:41;31.20;;;7.88;;
26086;SDS011;13851;43.434;28.338;2022-11-20T08:04:07;25.48;;;7.70;;
26086;SDS011;13851;43.434;28.338;2022-11-20T08:06:33;23.27;;;7.15;;
26086;SDS011;13851;43.434;28.338;2022-11-20T08:08:59;25.33;;;7.38;;
26086;SDS011;13851;43.434;28.338;2022-11-20T08:11:25;27.95;;;8.65;;
26086;SDS011;13851;43.434;28.338;2022-11-20T08:14:12;28.10;;;8.13;;
26086;SDS011;13851;43.434;28.338;2022-11-20T08:16:38;30.38;;;7.60;;
26086;SDS011;13851;43.434;28.338;2022-11-20T08:19:04;32.78;;;9.13;;
26086;SDS011;13851;43.434;28.338;2022-11-20T08:21:30;27.40;;;8.00;;
26086;SDS011;13851;43.434;28.338;2022-11-20T08:23:57;33.28;;;8.98;;
26086;SDS011;13851;43.434;28.338;2022-11-20T08:26:23;32.53;;;9.13;;
26086;SDS011;13851;43.434;28.338;2022-11-20T08:28:52;30.48;;;8.45;;
26086;SDS011;13851;43.434;28.338;2022-11-20T08:31:19;25.15;;;8.18;;
26086;SDS011;13851;43.434;28.338;2022-11-20T08:33:45;28.20;;;7.38;;
26086;SDS011;13851;43.434;28.338;2022-11-20T08:36:13;25.50;;;8.18;;
26086;SDS011;13851;43.434;28.338;2022-11-20T08:38:39;26.52;;;7.10;;
26086;SDS011;13851;43.434;28.338;2022-11-20T08:41:05;31.52;;;8.10;;
26086;SDS011;13851;43.434;28.338;2022-11-20T08:43:56;21.27;;;6.93;;
26086;SDS011;13851;43.434;28.338;2022-11-20T08:46:26;22.60;;;7.22;;
26086;SDS011;13851;43.434;28.338;2022-11-20T08:48:55;19.50;;;7.00;;
26086;SDS011;13851;43.434;28.338;2022-11-20T08:51:21;22.73;;;7.32;;
26086;SDS011;13851;43.434;28.338;2022-11-20T08:53:46;26.55;;;8.48;;
26086;SDS011;13851;43.434;28.338;2022-11-20T08:56:13;26.75;;;7.50;;
26086;SDS011;13851;43.434;28.338;2022-11-20T08:58:39;27.77;;;6.82;;
26086;SDS011;13851;43.434;28.338;2022-11-20T09:01:05;26.08;;;7.13;;
26086;SDS011;13851;43.434;28.338;2022-11-20T09:03:31;27.00;;;7.20;;
26086;SDS011;13851;43.434;28.338;2022-11-20T09:06:00;26.85;;;7.55;;
26086;SDS011;13851;43.434;28.338;2022-11-20T09:08:29;26.80;;;6.60;;
26086;SDS011;13851;43.434;28.338;2022-11-20T09:10:55;24.25;;;6.35;;
26086;SDS011;13851;43.434;28.338;2022-11-20T09:13:22;20.30;;;6.20;;
26086;SDS011;13851;43.434;28.338;2022-11-20T09:15:52;21.48;;;6.40;;
26086;SDS011;13851;43.434;28.338;2022-11-20T09:18:19;23.42;;;6.45;;
26086;SDS011;13851;43.434;28.338;2022-11-20T09:20:45;19.77;;;5.75;;
26086;SDS011;13851;43.434;28.338;2022-11-20T09:23:13;22.50;;;6.20;;
26086;SDS011;13851;43.434;28.338;2022-11-20T09:25:40;20.38;;;6.47;;
26086;SDS011;13851;43.434;28.338;2022-11-20T09:28:06;22.85;;;6.90;;
26086;SDS011;13851;43.434;28.338;2022-11-20T09:30:31;22.33;;;6.65;;
26086;SDS011;13851;43.434;28.338;2022-11-20T09:33:03;19.58;;;6.50;;
26086;SDS011;13851;43.434;28.338;2022-11-20T09:35:29;23.63;;;6.38;;
26086;SDS011;13851;43.434;28.338;2022-11-20T09:37:55;22.88;;;6.43;;
26086;SDS011;13851;43.434;28.338;2022-11-20T09:40:27;20.63;;;6.32;;
26086;SDS011;13851;43.434;28.338;2022-11-20T09:45:50;25.17;;;6.65;;
26086;SDS011;13851;43.434;28.338;2022-11-20T09:51:23;25.20;;;7.18;;
26086;SDS011;13851;43.434;28.338;2022-11-20T09:56:21;22.25;;;6.65;;
26086;SDS011;13851;43.434;28.338;2022-11-20T09:58:50;20.70;;;7.57;;
26086;SDS011;13851;43.434;28.338;2022-11-20T10:01:19;21.95;;;7.50;;
26086;SDS011;13851;43.434;28.338;2022-11-20T10:06:32;21.48;;;6.30;;
26086;SDS011;13851;43.434;28.338;2022-11-20T10:14:26;22.40;;;7.53;;
26086;SDS011;13851;43.434;28.338;2022-11-20T10:17:02;22.75;;;6.55;;
26086;SDS011;13851;43.434;28.338;2022-11-20T10:22:19;22.30;;;6.30;;
26086;SDS011;13851;43.434;28.338;2022-11-20T10:27:34;28.30;;;7.03;;
26086;SDS011;13851;43.434;28.338;2022-11-20T10:30:19;23.80;;;6.30;;
26086;SDS011;13851;43.434;28.338;2022-11-20T10:32:49;23.20;;;6.10;;
26086;SDS011;13851;43.434;28.338;2022-11-20T10:40:59;21.13;;;6.47;;
26086;SDS011;13851;43.434;28.338;2022-11-20T10:43:46;24.17;;;6.32;;
26086;SDS011;13851;43.434;28.338;2022-11-20T10:46:23;26.98;;;6.70;;
26086;SDS011;13851;43.434;28.338;2022-11-20T10:48:50;22.33;;;6.53;;
26086;SDS011;13851;43.434;28.338;2022-11-20T10:56:38;23.00;;;6.50;;
26086;SDS011;13851;43.434;28.338;2022-11-20T11:01:39;26.92;;;6.97;;
26086;SDS011;13851;43.434;28.338;2022-11-20T11:04:13;22.67;;;6.28;;
26086;SDS011;13851;43.434;28.338;2022-11-20T11:06:54;22.80;;;6.28;;
26086;SDS011;13851;43.434;28.338;2022-11-20T11:09:32;28.67;;;7.85;;
26086;SDS011;13851;43.434;28.338;2022-11-20T11:12:00;27.77;;;6.85;;
26086;SDS011;13851;43.434;28.338;2022-11-20T11:14:26;26.02;;;6.85;;
26086;SDS011;13851;43.434;28.338;2022-11-20T11:16:55;25.95;;;7.05;;
26086;SDS011;13851;43.434;28.338;2022-11-20T11:19:22;24.98;;;7.03;;
26086;SDS011;13851;43.434;28.338;2022-11-20T11:21:49;23.33;;;6.72;;
26086;SDS011;13851;43.434;28.338;2022-11-20T11:24:21;29.20;;;7.55;;
26086;SDS011;13851;43.434;28.338;2022-11-20T11:27:02;26.40;;;9.93;;
26086;SDS011;13851;43.434;28.338;2022-11-20T11:29:29;24.92;;;8.45;;
26086;SDS011;13851;43.434;28.338;2022-11-20T11:32:05;29.63;;;7.70;;
26086;SDS011;13851;43.434;28.338;2022-11-20T11:34:42;22.20;;;7.28;;
26086;SDS011;13851;43.434;28.338;2022-11-20T11:37:15;30.52;;;9.15;;
26086;SDS011;13851;43.434;28.338;2022-11-20T11:39:43;29.27;;;7.35;;
26086;SDS011;13851;43.434;28.338;2022-11-20T11:42:13;22.98;;;7.70;;
26086;SDS011;13851;43.434;28.338;2022-11-20T11:44:46;26.52;;;7.28;;
26086;SDS011;13851;43.434;28.338;2022-11-20T11:47:42;24.35;;;7.38;;
26086;SDS011;13851;43.434;28.338;2022-11-20T11:52:42;25.80;;;7.70;;
26086;SDS011;13851;43.434;28.338;2022-11-20T11:55:24;34.53;;;7.78;;
26086;SDS011;13851;43.434;28.338;2022-11-20T11:58:33;28.15;;;8.50;;
26086;SDS011;13851;43.434;28.338;2022-11-20T12:06:35;33.60;;;8.77;;
26086;SDS011;13851;43.434;28.338;2022-11-20T12:09:05;28.38;;;7.80;;
26086;SDS011;13851;43.434;28.338;2022-11-20T12:14:47;35.72;;;9.23;;
26086;SDS011;13851;43.434;28.338;2022-11-20T12:19:42;32.13;;;9.95;;
26086;SDS011;13851;43.434;28.338;2022-11-20T12:24:53;32.75;;;9.25;;
26086;SDS011;13851;43.434;28.338;2022-11-20T12:43:46;26.70;;;8.25;;
26086;SDS011;13851;43.434;28.338;2022-11-20T12:47:57;25.70;;;7.38;;
26086;SDS011;13851;43.434;28.338;2022-11-20T12:50:02;26.70;;;7.53;;
26086;SDS011;13851;43.434;28.338;2022-11-20T12:55:45;26.92;;;8.15;;
26086;SDS011;13851;43.434;28.338;2022-11-20T13:01:25;27.77;;;7.30;;
26086;SDS011;13851;43.434;28.338;2022-11-20T13:07:08;26.17;;;7.68;;
26086;SDS011;13851;43.434;28.338;2022-11-20T13:09:38;27.35;;;8.05;;
26086;SDS011;13851;43.434;28.338;2022-11-20T13:17:15;19.15;;;6.95;;
26086;SDS011;13851;43.434;28.338;2022-11-20T13:19:56;26.02;;;7.60;;
26086;SDS011;13851;43.434;28.338;2022-11-20T13:22:27;31.73;;;10.20;;
26086;SDS011;13851;43.434;28.338;2022-11-20T13:24:54;33.33;;;14.13;;
26086;SDS011;13851;43.434;28.338;2022-11-20T13:27:23;30.48;;;9.82;;
26086;SDS011;13851;43.434;28.338;2022-11-20T13:29:59;27.20;;;7.50;;
26086;SDS011;13851;43.434;28.338;2022-11-20T13:35:35;29.42;;;7.07;;
26086;SDS011;13851;43.434;28.338;2022-11-20T13:38:04;30.13;;;8.10;;
26086;SDS011;13851;43.434;28.338;2022-11-20T13:40:35;30.63;;;8.10;;
26086;SDS011;13851;43.434;28.338;2022-11-20T13:43:21;27.35;;;6.97;;
26086;SDS011;13851;43.434;28.338;2022-11-20T13:46:06;30.38;;;7.55;;
26086;SDS011;13851;43.434;28.338;2022-11-20T13:48:34;34.58;;;7.40;;
26086;SDS011;13851;43.434;28.338;2022-11-20T13:56:56;29.48;;;7.57;;
26086;SDS011;13851;43.434;28.338;2022-11-20T14:02:43;32.03;;;7.78;;
26086;SDS011;13851;43.434;28.338;2022-11-20T14:05:19;27.33;;;7.40;;
26086;SDS011;13851;43.434;28.338;2022-11-20T14:07:47;32.50;;;7.55;;
26086;SDS011;13851;43.434;28.338;2022-11-20T14:10:28;41.15;;;8.93;;
26086;SDS011;13851;43.434;28.338;2022-11-20T14:12:54;36.60;;;8.43;;
26086;SDS011;13851;43.434;28.338;2022-11-20T14:15:28;31.40;;;8.05;;
26086;SDS011;13851;43.434;28.338;2022-11-20T14:17:55;33.35;;;8.20;;
26086;SDS011;13851;43.434;28.338;2022-11-20T14:20:21;29.58;;;7.30;;
26086;SDS011;13851;43.434;28.338;2022-11-20T14:22:52;25.23;;;8.23;;
26086;SDS011;13851;43.434;28.338;2022-11-20T14:27:53;39.78;;;8.98;;
26086;SDS011;13851;43.434;28.338;2022-11-20T14:30:22;28.13;;;8.15;;
26086;SDS011;13851;43.434;28.338;2022-11-20T14:32:51;29.05;;;7.72;;
26086;SDS011;13851;43.434;28.338;2022-11-20T14:37:54;34.03;;;8.85;;
26086;SDS011;13851;43.434;28.338;2022-11-20T14:42:51;36.20;;;8.93;;
26086;SDS011;13851;43.434;28.338;2022-11-20T14:45:16;41.10;;;9.68;;
26086;SDS011;13851;43.434;28.338;2022-11-20T14:47:43;36.55;;;9.20;;
26086;SDS011;13851;43.434;28.338;2022-11-20T14:52:57;32.55;;;8.77;;
26086;SDS011;13851;43.434;28.338;2022-11-20T14:55:32;33.97;;;10.55;;
26086;SDS011;13851;43.434;28.338;2022-11-20T14:58:05;39.50;;;11.10;;
26086;SDS011;13851;43.434;28.338;2022-11-20T15:00:52;37.63;;;9.73;;
26086;SDS011;13851;43.434;28.338;2022-11-20T15:03:20;36.15;;;10.68;;
26086;SDS011;13851;43.434;28.338;2022-11-20T15:05:46;39.33;;;11.38;;
26086;SDS011;13851;43.434;28.338;2022-11-20T15:08:14;39.05;;;13.02;;
26086;SDS011;13851;43.434;28.338;2022-11-20T15:10:49;41.85;;;11.75;;
26086;SDS011;13851;43.434;28.338;2022-11-20T15:13:18;39.05;;;11.45;;
26086;SDS011;13851;43.434;28.338;2022-11-20T15:15:54;38.00;;;12.15;;
26086;SDS011;13851;43.434;28.338;2022-11-20T15:18:39;31.13;;;10.40;;
26086;SDS011;13851;43.434;28.338;2022-11-20T15:21:13;37.85;;;12.27;;
26086;SDS011;13851;43.434;28.338;2022-11-20T15:26:06;38.15;;;12.70;;
26086;SDS011;13851;43.434;28.338;2022-11-20T15:28:38;52.25;;;15.68;;
26086;SDS011;13851;43.434;28.338;2022-11-20T15:31:06;39.63;;;12.70;;
26086;SDS011;13851;43.434;28.338;2022-11-20T15:33:36;47.03;;;14.53;;
26086;SDS011;13851;43.434;28.338;2022-11-20T15:36:01;43.08;;;13.23;;
26086;SDS011;13851;43.434;28.338;2022-11-20T15:38:27;31.65;;;10.15;;
26086;SDS011;13851;43.434;28.338;2022-11-20T15:40:53;42.42;;;11.30;;
26086;SDS011;13851;43.434;28.338;2022-11-20T15:43:19;35.65;;;11.18;;
26086;SDS011;13851;43.434;28.338;2022-11-20T15:45:48;32.78;;;11.20;;
26086;SDS011;13851;43.434;28.338;2022-11-20T15:48:20;44.38;;;12.05;;
26086;SDS011;13851;43.434;28.338;2022-11-20T15:50:53;45.70;;;11.40;;
26086;SDS011;13851;43.434;28.338;2022-11-20T15:53:23;38.17;;;11.43;;
26086;SDS011;13851;43.434;28.338;2022-11-20T15:55:49;39.33;;;12.82;;
26086;SDS011;13851;43.434;28.338;2022-11-20T15:58:17;46.45;;;16.40;;
26086;SDS011;13851;43.434;28.338;2022-11-20T16:00:43;50.30;;;16.05;;
26086;SDS011;13851;43.434;28.338;2022-11-20T16:03:12;47.13;;;17.08;;
26086;SDS011;13851;43.434;28.338;2022-11-20T16:05:39;46.63;;;17.48;;
26086;SDS011;13851;43.434;28.338;2022-11-20T16:08:05;40.03;;;12.30;;
26086;SDS011;13851;43.434;28.338;2022-11-20T16:10:30;36.20;;;11.55;;
26086;SDS011;13851;43.434;28.338;2022-11-20T16:12:56;40.10;;;10.95;;
26086;SDS011;13851;43.434;28.338;2022-11-20T16:15:39;40.35;;;13.10;;
26086;SDS011;13851;43.434;28.338;2022-11-20T16:18:12;40.67;;;11.70;;
26086;SDS011;13851;43.434;28.338;2022-11-20T16:20:44;38.72;;;11.77;;
26086;SDS011;13851;43.434;28.338;2022-11-20T16:23:10;42.30;;;10.45;;
26086;SDS011;13851;43.434;28.338;2022-11-20T16:25:36;30.58;;;11.90;;
26086;SDS011;13851;43.434;28.338;2022-11-20T16:28:02;44.83;;;12.90;;
26086;SDS011;13851;43.434;28.338;2022-11-20T16:30:27;44.00;;;12.10;;
26086;SDS011;13851;43.434;28.338;2022-11-20T16:32:55;45.58;;;11.75;;